sensor_id;sensor_type;location;lat;lon;timestamp;P1;durP1;ratioP1;P2;durP2;ratioP2
14903;SDS011;7543;53.148;8.234;2023-05-10T00:00:36;6.47;;;4.63;;
14903;SDS011;7543;53.148;8.234;2023-05-10T00:03:04;7.10;;;4.87;;
14903;SDS011;7543;53.148;8.234;2023-05-10T00:05:33;5.60;;;4.90;;
14903;SDS011;7543;53.148;8.234;2023-05-10T00:08:01;7.23;;;4.60;;
14903;SDS011;7543;53.148;8.234;2023-05-10T00:10:31;6.17;;;4.53;;
14903;SDS011;7543;53.148;8.234;2023-05-10T00:12:59;7.47;;;5.13;;
14903;SDS011;7543;53.148;8.234;2023-05-10T00:15:27;6.27;;;4.70;;
14903;SDS011;7543;53.148;8.234;2023-05-10T00:17:57;6.50;;;4.60;;
14903;SDS011;7543;53.148;8.234;2023-05-10T00:20:25;7.10;;;4.60;;
14903;SDS011;7543;53.148;8.234;2023-05-10T00:22:54;6.30;;;4.87;;
14903;SDS011;7543;53.148;8.234;2023-05-10T00:25:22;5.50;;;4.67;;
14903;SDS011;7543;53.148;8.234;2023-05-10T00:27:52;5.37;;;4.47;;
14903;SDS011;7543;53.148;8.234;2023-05-10T00:30:21;5.40;;;4.63;;
14903;SDS011;7543;53.148;8.234;2023-05-10T00:32:50;6.27;;;4.53;;
14903;SDS011;7543;53.148;8.234;2023-05-10T00:35:18;6.87;;;4.00;;
14903;SDS011;7543;53.148;8.234;2023-05-10T00:37:48;5.13;;;3.90;;
14903;SDS011;7543;53.148;8.234;2023-05-10T00:40:16;5.33;;;4.27;;
14903;SDS011;7543;53.148;8.234;2023-05-10T00:42:49;5.53;;;3.70;;
14903;SDS011;7543;53.148;8.234;2023-05-10T00:45:19;6.17;;;4.57;;
14903;SDS011;7543;53.148;8.234;2023-05-10T00:47:47;5.87;;;4.50;;
14903;SDS011;7543;53.148;8.234;2023-05-10T00:50:16;6.17;;;4.13;;
14903;SDS011;7543;53.148;8.234;2023-05-10T00:52:44;5.00;;;4.40;;
14903;SDS011;7543;53.148;8.234;2023-05-10T00:55:12;8.37;;;4.87;;
14903;SDS011;7543;53.148;8.234;2023-05-10T00:57:41;6.97;;;4.60;;
14903;SDS011;7543;53.148;8.234;2023-05-10T01:00:10;5.90;;;4.30;;
14903;SDS011;7543;53.148;8.234;2023-05-10T01:02:40;5.10;;;4.10;;
14903;SDS011;7543;53.148;8.234;2023-05-10T01:05:09;7.40;;;3.93;;
14903;SDS011;7543;53.148;8.234;2023-05-10T01:07:37;6.40;;;4.13;;
14903;SDS011;7543;53.148;8.234;2023-05-10T01:10:06;6.43;;;4.17;;
14903;SDS011;7543;53.148;8.234;2023-05-10T01:12:37;5.73;;;4.30;;
14903;SDS011;7543;53.148;8.234;2023-05-10T01:15:06;6.13;;;4.30;;
14903;SDS011;7543;53.148;8.234;2023-05-10T01:17:36;5.37;;;4.20;;
14903;SDS011;7543;53.148;8.234;2023-05-10T01:20:08;7.67;;;4.30;;
14903;SDS011;7543;53.148;8.234;2023-05-10T01:22:47;5.10;;;3.80;;
14903;SDS011;7543;53.148;8.234;2023-05-10T01:25:28;4.70;;;3.70;;
14903;SDS011;7543;53.148;8.234;2023-05-10T01:28:07;4.77;;;4.10;;
14903;SDS011;7543;53.148;8.234;2023-05-10T01:33:39;5.40;;;4.13;;
14903;SDS011;7543;53.148;8.234;2023-05-10T01:36:12;5.20;;;4.13;;
14903;SDS011;7543;53.148;8.234;2023-05-10T01:38:45;5.43;;;4.30;;
14903;SDS011;7543;53.148;8.234;2023-05-10T01:41:17;5.60;;;4.10;;
14903;SDS011;7543;53.148;8.234;2023-05-10T01:43:50;5.47;;;4.23;;
14903;SDS011;7543;53.148;8.234;2023-05-10T01:46:24;4.47;;;3.93;;
14903;SDS011;7543;53.148;8.234;2023-05-10T01:48:58;5.83;;;3.80;;
14903;SDS011;7543;53.148;8.234;2023-05-10T01:51:29;6.63;;;4.00;;
14903;SDS011;7543;53.148;8.234;2023-05-10T01:54:07;6.00;;;3.87;;
14903;SDS011;7543;53.148;8.234;2023-05-10T01:56:37;8.13;;;3.93;;
14903;SDS011;7543;53.148;8.234;2023-05-10T01:59:06;5.07;;;4.07;;
14903;SDS011;7543;53.148;8.234;2023-05-10T02:01:39;5.20;;;3.80;;
14903;SDS011;7543;53.148;8.234;2023-05-10T02:04:10;4.80;;;3.90;;
14903;SDS011;7543;53.148;8.234;2023-05-10T02:06:39;5.10;;;3.40;;
14903;SDS011;7543;53.148;8.234;2023-05-10T02:09:09;4.97;;;4.17;;
14903;SDS011;7543;53.148;8.234;2023-05-10T02:11:38;4.53;;;3.97;;
14903;SDS011;7543;53.148;8.234;2023-05-10T02:14:07;4.30;;;3.70;;
14903;SDS011;7543;53.148;8.234;2023-05-10T02:16:37;4.87;;;3.70;;
14903;SDS011;7543;53.148;8.234;2023-05-10T02:19:06;6.43;;;3.93;;
14903;SDS011;7543;53.148;8.234;2023-05-10T02:21:38;4.87;;;3.63;;
14903;SDS011;7543;53.148;8.234;2023-05-10T02:24:07;5.73;;;4.30;;
14903;SDS011;7543;53.148;8.234;2023-05-10T02:26:36;5.23;;;3.83;;
14903;SDS011;7543;53.148;8.234;2023-05-10T02:29:06;4.40;;;3.93;;
14903;SDS011;7543;53.148;8.234;2023-05-10T02:31:34;5.83;;;3.80;;
14903;SDS011;7543;53.148;8.234;2023-05-10T02:34:05;5.20;;;3.57;;
14903;SDS011;7543;53.148;8.234;2023-05-10T02:36:34;4.57;;;3.67;;
14903;SDS011;7543;53.148;8.234;2023-05-10T02:39:06;5.77;;;3.77;;
14903;SDS011;7543;53.148;8.234;2023-05-10T02:41:36;5.77;;;4.00;;
14903;SDS011;7543;53.148;8.234;2023-05-10T02:44:05;5.93;;;3.60;;
14903;SDS011;7543;53.148;8.234;2023-05-10T02:46:35;6.10;;;4.20;;
14903;SDS011;7543;53.148;8.234;2023-05-10T02:49:04;4.07;;;3.53;;
14903;SDS011;7543;53.148;8.234;2023-05-10T02:51:34;5.57;;;3.70;;
14903;SDS011;7543;53.148;8.234;2023-05-10T02:54:09;4.33;;;3.67;;
14903;SDS011;7543;53.148;8.234;2023-05-10T02:56:42;5.70;;;3.53;;
14903;SDS011;7543;53.148;8.234;2023-05-10T02:59:12;4.13;;;3.20;;
14903;SDS011;7543;53.148;8.234;2023-05-10T03:01:40;4.53;;;3.70;;
14903;SDS011;7543;53.148;8.234;2023-05-10T03:04:09;4.27;;;3.53;;
14903;SDS011;7543;53.148;8.234;2023-05-10T03:06:37;4.33;;;3.17;;
14903;SDS011;7543;53.148;8.234;2023-05-10T03:09:05;3.47;;;3.13;;
14903;SDS011;7543;53.148;8.234;2023-05-10T03:11:43;4.37;;;3.50;;
14903;SDS011;7543;53.148;8.234;2023-05-10T03:14:21;5.00;;;3.80;;
14903;SDS011;7543;53.148;8.234;2023-05-10T03:16:54;4.47;;;3.90;;
14903;SDS011;7543;53.148;8.234;2023-05-10T03:19:26;4.17;;;3.53;;
14903;SDS011;7543;53.148;8.234;2023-05-10T03:21:59;5.83;;;4.10;;
14903;SDS011;7543;53.148;8.234;2023-05-10T03:24:32;4.30;;;3.60;;
14903;SDS011;7543;53.148;8.234;2023-05-10T03:27:05;5.87;;;3.90;;
14903;SDS011;7543;53.148;8.234;2023-05-10T03:29:34;5.67;;;4.23;;
14903;SDS011;7543;53.148;8.234;2023-05-10T03:32:04;5.23;;;4.10;;
14903;SDS011;7543;53.148;8.234;2023-05-10T03:34:33;6.10;;;4.70;;
14903;SDS011;7543;53.148;8.234;2023-05-10T03:37:01;6.33;;;4.73;;
14903;SDS011;7543;53.148;8.234;2023-05-10T03:39:32;6.70;;;5.07;;
14903;SDS011;7543;53.148;8.234;2023-05-10T03:42:02;6.80;;;5.23;;
14903;SDS011;7543;53.148;8.234;2023-05-10T03:44:32;7.07;;;5.40;;
14903;SDS011;7543;53.148;8.234;2023-05-10T03:47:01;6.47;;;5.60;;
14903;SDS011;7543;53.148;8.234;2023-05-10T03:49:29;8.83;;;6.40;;
14903;SDS011;7543;53.148;8.234;2023-05-10T03:51:57;10.67;;;6.30;;
14903;SDS011;7543;53.148;8.234;2023-05-10T03:54:27;10.67;;;6.60;;
14903;SDS011;7543;53.148;8.234;2023-05-10T03:56:55;7.80;;;5.43;;
14903;SDS011;7543;53.148;8.234;2023-05-10T03:59:24;8.40;;;5.93;;
14903;SDS011;7543;53.148;8.234;2023-05-10T04:01:54;8.30;;;6.60;;
14903;SDS011;7543;53.148;8.234;2023-05-10T04:04:22;8.00;;;6.17;;
14903;SDS011;7543;53.148;8.234;2023-05-10T04:06:51;9.17;;;6.17;;
14903;SDS011;7543;53.148;8.234;2023-05-10T04:09:19;7.83;;;5.53;;
14903;SDS011;7543;53.148;8.234;2023-05-10T04:11:48;9.73;;;5.47;;
14903;SDS011;7543;53.148;8.234;2023-05-10T04:14:16;6.60;;;4.90;;
14903;SDS011;7543;53.148;8.234;2023-05-10T04:16:44;5.67;;;3.87;;
14903;SDS011;7543;53.148;8.234;2023-05-10T04:19:14;3.83;;;2.60;;
14903;SDS011;7543;53.148;8.234;2023-05-10T04:21:42;3.43;;;2.30;;
14903;SDS011;7543;53.148;8.234;2023-05-10T04:24:11;3.10;;;2.20;;
14903;SDS011;7543;53.148;8.234;2023-05-10T04:26:40;3.57;;;2.53;;
14903;SDS011;7543;53.148;8.234;2023-05-10T04:29:08;4.17;;;2.37;;
14903;SDS011;7543;53.148;8.234;2023-05-10T04:31:36;2.80;;;2.07;;
14903;SDS011;7543;53.148;8.234;2023-05-10T04:34:05;3.67;;;2.00;;
14903;SDS011;7543;53.148;8.234;2023-05-10T04:36:34;3.00;;;2.07;;
14903;SDS011;7543;53.148;8.234;2023-05-10T04:39:03;2.27;;;1.93;;
14903;SDS011;7543;53.148;8.234;2023-05-10T04:41:31;3.27;;;2.20;;
14903;SDS011;7543;53.148;8.234;2023-05-10T04:44:00;3.67;;;2.10;;
14903;SDS011;7543;53.148;8.234;2023-05-10T04:46:28;3.07;;;2.30;;
14903;SDS011;7543;53.148;8.234;2023-05-10T04:48:57;3.60;;;2.20;;
14903;SDS011;7543;53.148;8.234;2023-05-10T04:51:25;2.83;;;1.90;;
14903;SDS011;7543;53.148;8.234;2023-05-10T04:53:55;2.30;;;1.60;;
14903;SDS011;7543;53.148;8.234;2023-05-10T04:56:23;2.10;;;1.70;;
14903;SDS011;7543;53.148;8.234;2023-05-10T04:58:52;2.00;;;1.50;;
14903;SDS011;7543;53.148;8.234;2023-05-10T05:01:20;1.53;;;1.27;;
14903;SDS011;7543;53.148;8.234;2023-05-10T05:03:49;0.90;;;0.70;;
14903;SDS011;7543;53.148;8.234;2023-05-10T05:06:19;1.00;;;0.60;;
14903;SDS011;7543;53.148;8.234;2023-05-10T05:08:47;1.17;;;0.70;;
14903;SDS011;7543;53.148;8.234;2023-05-10T05:11:18;1.03;;;0.93;;
14903;SDS011;7543;53.148;8.234;2023-05-10T05:13:47;0.90;;;0.80;;
14903;SDS011;7543;53.148;8.234;2023-05-10T05:16:16;1.10;;;1.00;;
14903;SDS011;7543;53.148;8.234;2023-05-10T05:18:44;1.17;;;1.07;;
14903;SDS011;7543;53.148;8.234;2023-05-10T05:21:16;1.80;;;1.57;;
14903;SDS011;7543;53.148;8.234;2023-05-10T05:23:45;3.30;;;1.67;;
14903;SDS011;7543;53.148;8.234;2023-05-10T05:26:13;3.10;;;1.70;;
14903;SDS011;7543;53.148;8.234;2023-05-10T05:28:43;2.00;;;1.70;;
14903;SDS011;7543;53.148;8.234;2023-05-10T05:31:11;2.80;;;2.00;;
14903;SDS011;7543;53.148;8.234;2023-05-10T05:33:40;2.40;;;1.90;;
14903;SDS011;7543;53.148;8.234;2023-05-10T05:36:08;2.80;;;2.10;;
14903;SDS011;7543;53.148;8.234;2023-05-10T05:38:37;2.63;;;1.90;;
14903;SDS011;7543;53.148;8.234;2023-05-10T05:41:05;2.37;;;2.00;;
14903;SDS011;7543;53.148;8.234;2023-05-10T05:43:33;6.53;;;2.33;;
14903;SDS011;7543;53.148;8.234;2023-05-10T05:46:03;2.47;;;2.10;;
14903;SDS011;7543;53.148;8.234;2023-05-10T05:48:32;3.27;;;2.10;;
14903;SDS011;7543;53.148;8.234;2023-05-10T05:51:00;2.83;;;1.93;;
14903;SDS011;7543;53.148;8.234;2023-05-10T05:53:29;2.50;;;2.10;;
14903;SDS011;7543;53.148;8.234;2023-05-10T05:55:57;2.17;;;1.97;;
14903;SDS011;7543;53.148;8.234;2023-05-10T05:58:26;2.80;;;2.17;;
14903;SDS011;7543;53.148;8.234;2023-05-10T06:00:54;3.17;;;2.23;;
14903;SDS011;7543;53.148;8.234;2023-05-10T06:03:24;2.67;;;2.30;;
14903;SDS011;7543;53.148;8.234;2023-05-10T06:05:53;3.50;;;2.70;;
14903;SDS011;7543;53.148;8.234;2023-05-10T06:08:21;3.17;;;2.27;;
14903;SDS011;7543;53.148;8.234;2023-05-10T06:10:50;3.23;;;2.47;;
14903;SDS011;7543;53.148;8.234;2023-05-10T06:13:18;4.93;;;2.43;;
14903;SDS011;7543;53.148;8.234;2023-05-10T06:15:46;3.70;;;2.67;;
14903;SDS011;7543;53.148;8.234;2023-05-10T06:18:15;4.03;;;2.67;;
14903;SDS011;7543;53.148;8.234;2023-05-10T06:20:44;3.67;;;2.60;;
14903;SDS011;7543;53.148;8.234;2023-05-10T06:23:13;3.80;;;2.60;;
14903;SDS011;7543;53.148;8.234;2023-05-10T06:25:41;3.00;;;2.53;;
14903;SDS011;7543;53.148;8.234;2023-05-10T06:28:09;3.93;;;3.00;;
14903;SDS011;7543;53.148;8.234;2023-05-10T06:30:39;3.23;;;2.77;;
14903;SDS011;7543;53.148;8.234;2023-05-10T06:33:07;3.70;;;2.67;;
14903;SDS011;7543;53.148;8.234;2023-05-10T06:35:36;3.80;;;3.10;;
14903;SDS011;7543;53.148;8.234;2023-05-10T06:38:05;4.30;;;3.00;;
14903;SDS011;7543;53.148;8.234;2023-05-10T06:40:34;3.73;;;3.07;;
14903;SDS011;7543;53.148;8.234;2023-05-10T06:43:02;4.23;;;2.90;;
14903;SDS011;7543;53.148;8.234;2023-05-10T06:45:31;3.43;;;2.70;;
14903;SDS011;7543;53.148;8.234;2023-05-10T06:47:59;4.07;;;2.97;;
14903;SDS011;7543;53.148;8.234;2023-05-10T06:50:27;4.00;;;3.00;;
14903;SDS011;7543;53.148;8.234;2023-05-10T06:52:56;4.87;;;3.23;;
14903;SDS011;7543;53.148;8.234;2023-05-10T06:55:26;3.80;;;2.73;;
14903;SDS011;7543;53.148;8.234;2023-05-10T06:57:54;4.13;;;2.80;;
14903;SDS011;7543;53.148;8.234;2023-05-10T07:00:23;4.10;;;3.10;;
14903;SDS011;7543;53.148;8.234;2023-05-10T07:02:51;4.43;;;3.20;;
14903;SDS011;7543;53.148;8.234;2023-05-10T07:05:20;5.67;;;2.90;;
14903;SDS011;7543;53.148;8.234;2023-05-10T07:07:48;3.43;;;2.70;;
14903;SDS011;7543;53.148;8.234;2023-05-10T07:10:17;3.50;;;2.90;;
14903;SDS011;7543;53.148;8.234;2023-05-10T07:12:47;4.13;;;3.10;;
14903;SDS011;7543;53.148;8.234;2023-05-10T07:15:15;4.00;;;2.90;;
14903;SDS011;7543;53.148;8.234;2023-05-10T07:17:43;5.70;;;2.83;;
14903;SDS011;7543;53.148;8.234;2023-05-10T07:20:12;3.93;;;2.97;;
14903;SDS011;7543;53.148;8.234;2023-05-10T07:22:40;4.87;;;3.37;;
14903;SDS011;7543;53.148;8.234;2023-05-10T07:25:09;6.00;;;3.50;;
14903;SDS011;7543;53.148;8.234;2023-05-10T07:27:37;5.03;;;3.57;;
14903;SDS011;7543;53.148;8.234;2023-05-10T07:30:08;4.83;;;3.47;;
14903;SDS011;7543;53.148;8.234;2023-05-10T07:32:37;4.47;;;3.30;;
14903;SDS011;7543;53.148;8.234;2023-05-10T07:35:06;4.67;;;3.13;;
14903;SDS011;7543;53.148;8.234;2023-05-10T07:37:35;5.37;;;3.60;;
14903;SDS011;7543;53.148;8.234;2023-05-10T07:40:03;3.70;;;3.10;;
14903;SDS011;7543;53.148;8.234;2023-05-10T07:42:32;3.80;;;2.97;;
14903;SDS011;7543;53.148;8.234;2023-05-10T07:45:01;5.20;;;3.00;;
14903;SDS011;7543;53.148;8.234;2023-05-10T07:47:30;5.13;;;3.20;;
14903;SDS011;7543;53.148;8.234;2023-05-10T07:49:59;3.87;;;2.67;;
14903;SDS011;7543;53.148;8.234;2023-05-10T07:52:27;3.33;;;2.70;;
14903;SDS011;7543;53.148;8.234;2023-05-10T07:54:55;4.97;;;2.77;;
14903;SDS011;7543;53.148;8.234;2023-05-10T07:57:24;3.20;;;2.43;;
14903;SDS011;7543;53.148;8.234;2023-05-10T07:59:52;2.97;;;2.17;;
14903;SDS011;7543;53.148;8.234;2023-05-10T08:02:20;4.00;;;2.27;;
14903;SDS011;7543;53.148;8.234;2023-05-10T08:04:50;4.57;;;2.23;;
14903;SDS011;7543;53.148;8.234;2023-05-10T08:07:18;2.57;;;2.17;;
14903;SDS011;7543;53.148;8.234;2023-05-10T08:09:47;2.63;;;2.00;;
14903;SDS011;7543;53.148;8.234;2023-05-10T08:12:15;3.33;;;2.17;;
14903;SDS011;7543;53.148;8.234;2023-05-10T08:14:43;4.33;;;2.27;;
14903;SDS011;7543;53.148;8.234;2023-05-10T08:17:12;2.37;;;2.03;;
14903;SDS011;7543;53.148;8.234;2023-05-10T08:19:40;3.50;;;1.90;;
14903;SDS011;7543;53.148;8.234;2023-05-10T08:22:10;3.03;;;2.23;;
14903;SDS011;7543;53.148;8.234;2023-05-10T08:24:38;2.40;;;2.10;;
14903;SDS011;7543;53.148;8.234;2023-05-10T08:27:08;1.97;;;1.63;;
14903;SDS011;7543;53.148;8.234;2023-05-10T08:29:37;2.30;;;1.90;;
14903;SDS011;7543;53.148;8.234;2023-05-10T08:32:05;2.90;;;1.80;;
14903;SDS011;7543;53.148;8.234;2023-05-10T08:34:33;2.70;;;1.60;;
14903;SDS011;7543;53.148;8.234;2023-05-10T08:37:02;3.37;;;2.10;;
14903;SDS011;7543;53.148;8.234;2023-05-10T08:39:34;2.93;;;2.10;;
14903;SDS011;7543;53.148;8.234;2023-05-10T08:42:04;2.97;;;2.07;;
14903;SDS011;7543;53.148;8.234;2023-05-10T08:44:32;2.33;;;1.93;;
14903;SDS011;7543;53.148;8.234;2023-05-10T08:47:04;2.20;;;1.80;;
14903;SDS011;7543;53.148;8.234;2023-05-10T08:49:33;2.57;;;1.90;;
14903;SDS011;7543;53.148;8.234;2023-05-10T08:52:03;2.90;;;1.70;;
14903;SDS011;7543;53.148;8.234;2023-05-10T08:54:32;3.23;;;1.90;;
14903;SDS011;7543;53.148;8.234;2023-05-10T08:57:02;2.93;;;1.93;;
14903;SDS011;7543;53.148;8.234;2023-05-10T08:59:31;2.00;;;1.67;;
14903;SDS011;7543;53.148;8.234;2023-05-10T09:01:59;2.23;;;1.83;;
14903;SDS011;7543;53.148;8.234;2023-05-10T09:04:28;2.30;;;1.80;;
14903;SDS011;7543;53.148;8.234;2023-05-10T09:06:57;2.87;;;1.83;;
14903;SDS011;7543;53.148;8.234;2023-05-10T09:09:25;2.53;;;2.03;;
14903;SDS011;7543;53.148;8.234;2023-05-10T09:11:55;1.90;;;1.70;;
14903;SDS011;7543;53.148;8.234;2023-05-10T09:14:25;2.50;;;1.80;;
14903;SDS011;7543;53.148;8.234;2023-05-10T09:16:53;2.23;;;1.80;;
14903;SDS011;7543;53.148;8.234;2023-05-10T09:19:22;3.73;;;1.90;;
14903;SDS011;7543;53.148;8.234;2023-05-10T09:21:51;2.30;;;1.87;;
14903;SDS011;7543;53.148;8.234;2023-05-10T09:24:19;2.83;;;1.63;;
14903;SDS011;7543;53.148;8.234;2023-05-10T09:26:56;5.23;;;2.20;;
14903;SDS011;7543;53.148;8.234;2023-05-10T09:29:26;2.37;;;2.00;;
14903;SDS011;7543;53.148;8.234;2023-05-10T09:32:06;2.97;;;2.03;;
14903;SDS011;7543;53.148;8.234;2023-05-10T09:34:35;2.17;;;1.80;;
14903;SDS011;7543;53.148;8.234;2023-05-10T09:37:06;2.10;;;1.90;;
14903;SDS011;7543;53.148;8.234;2023-05-10T09:39:35;3.27;;;2.10;;
14903;SDS011;7543;53.148;8.234;2023-05-10T09:42:04;3.83;;;1.77;;
14903;SDS011;7543;53.148;8.234;2023-05-10T09:44:35;3.37;;;2.00;;
14903;SDS011;7543;53.148;8.234;2023-05-10T09:47:04;2.20;;;1.60;;
14903;SDS011;7543;53.148;8.234;2023-05-10T09:49:33;4.47;;;1.83;;
14903;SDS011;7543;53.148;8.234;2023-05-10T09:52:02;2.00;;;1.67;;
14903;SDS011;7543;53.148;8.234;2023-05-10T09:54:31;3.50;;;1.70;;
14903;SDS011;7543;53.148;8.234;2023-05-10T09:57:00;1.33;;;1.20;;
14903;SDS011;7543;53.148;8.234;2023-05-10T09:59:29;1.50;;;0.90;;
14903;SDS011;7543;53.148;8.234;2023-05-10T10:01:59;1.03;;;0.60;;
14903;SDS011;7543;53.148;8.234;2023-05-10T10:04:27;1.17;;;0.73;;
14903;SDS011;7543;53.148;8.234;2023-05-10T10:06:59;2.03;;;1.10;;
14903;SDS011;7543;53.148;8.234;2023-05-10T10:09:29;1.07;;;0.97;;
14903;SDS011;7543;53.148;8.234;2023-05-10T10:11:57;0.97;;;0.93;;
14903;SDS011;7543;53.148;8.234;2023-05-10T10:14:26;1.77;;;1.30;;
14903;SDS011;7543;53.148;8.234;2023-05-10T10:16:54;1.47;;;1.03;;
14903;SDS011;7543;53.148;8.234;2023-05-10T10:19:24;1.20;;;1.00;;
14903;SDS011;7543;53.148;8.234;2023-05-10T10:21:53;1.33;;;0.60;;
14903;SDS011;7543;53.148;8.234;2023-05-10T10:24:21;0.93;;;0.60;;
14903;SDS011;7543;53.148;8.234;2023-05-10T10:26:51;1.30;;;0.70;;
14903;SDS011;7543;53.148;8.234;2023-05-10T10:29:21;0.43;;;0.43;;
14903;SDS011;7543;53.148;8.234;2023-05-10T10:31:53;0.30;;;0.30;;
14903;SDS011;7543;53.148;8.234;2023-05-10T10:34:27;0.30;;;0.30;;
14903;SDS011;7543;53.148;8.234;2023-05-10T10:36:57;0.40;;;0.40;;
14903;SDS011;7543;53.148;8.234;2023-05-10T10:39:26;1.40;;;0.30;;
14903;SDS011;7543;53.148;8.234;2023-05-10T10:41:55;0.77;;;0.30;;
14903;SDS011;7543;53.148;8.234;2023-05-10T10:44:25;0.47;;;0.20;;
14903;SDS011;7543;53.148;8.234;2023-05-10T10:47:21;0.20;;;0.20;;
14903;SDS011;7543;53.148;8.234;2023-05-10T10:50:04;0.20;;;0.20;;
14903;SDS011;7543;53.148;8.234;2023-05-10T10:52:37;0.20;;;0.20;;
14903;SDS011;7543;53.148;8.234;2023-05-10T10:55:07;0.20;;;0.20;;
14903;SDS011;7543;53.148;8.234;2023-05-10T10:57:44;0.23;;;0.23;;
14903;SDS011;7543;53.148;8.234;2023-05-10T11:00:24;0.10;;;0.10;;
14903;SDS011;7543;53.148;8.234;2023-05-10T11:02:56;0.50;;;0.30;;
14903;SDS011;7543;53.148;8.234;2023-05-10T11:05:37;3.80;;;0.40;;
14903;SDS011;7543;53.148;8.234;2023-05-10T11:08:09;0.20;;;0.20;;
14903;SDS011;7543;53.148;8.234;2023-05-10T11:13:34;0.20;;;0.20;;
14903;SDS011;7543;53.148;8.234;2023-05-10T11:16:10;0.30;;;0.30;;
14903;SDS011;7543;53.148;8.234;2023-05-10T11:21:33;0.40;;;0.40;;
14903;SDS011;7543;53.148;8.234;2023-05-10T11:24:08;0.40;;;0.40;;
14903;SDS011;7543;53.148;8.234;2023-05-10T11:26:41;0.57;;;0.50;;
14903;SDS011;7543;53.148;8.234;2023-05-10T11:29:12;0.87;;;0.70;;
14903;SDS011;7543;53.148;8.234;2023-05-10T11:31:44;0.80;;;0.70;;
14903;SDS011;7543;53.148;8.234;2023-05-10T11:34:22;1.30;;;1.20;;
14903;SDS011;7543;53.148;8.234;2023-05-10T11:36:54;1.30;;;1.20;;
14903;SDS011;7543;53.148;8.234;2023-05-10T11:39:25;1.87;;;1.60;;
14903;SDS011;7543;53.148;8.234;2023-05-10T11:41:55;2.40;;;2.10;;
14903;SDS011;7543;53.148;8.234;2023-05-10T11:44:28;3.73;;;2.37;;
14903;SDS011;7543;53.148;8.234;2023-05-10T11:47:03;4.27;;;2.90;;
14903;SDS011;7543;53.148;8.234;2023-05-10T11:49:35;3.63;;;2.77;;
14903;SDS011;7543;53.148;8.234;2023-05-10T11:52:15;4.30;;;3.23;;
14903;SDS011;7543;53.148;8.234;2023-05-10T11:54:50;9.37;;;3.90;;
14903;SDS011;7543;53.148;8.234;2023-05-10T11:57:20;4.83;;;4.00;;
14903;SDS011;7543;53.148;8.234;2023-05-10T11:59:53;7.20;;;4.37;;
14903;SDS011;7543;53.148;8.234;2023-05-10T12:02:22;8.37;;;4.83;;
14903;SDS011;7543;53.148;8.234;2023-05-10T12:04:50;7.03;;;4.60;;
14903;SDS011;7543;53.148;8.234;2023-05-10T12:07:20;8.03;;;4.30;;
14903;SDS011;7543;53.148;8.234;2023-05-10T12:10:08;6.43;;;4.27;;
14903;SDS011;7543;53.148;8.234;2023-05-10T12:12:37;6.83;;;4.30;;
14903;SDS011;7543;53.148;8.234;2023-05-10T12:15:12;5.03;;;3.40;;
14903;SDS011;7543;53.148;8.234;2023-05-10T12:17:40;5.83;;;4.13;;
14903;SDS011;7543;53.148;8.234;2023-05-10T12:20:18;5.33;;;3.77;;
14903;SDS011;7543;53.148;8.234;2023-05-10T12:22:50;5.10;;;4.07;;
14903;SDS011;7543;53.148;8.234;2023-05-10T12:25:20;4.00;;;3.27;;
14903;SDS011;7543;53.148;8.234;2023-05-10T12:27:50;4.27;;;3.47;;
14903;SDS011;7543;53.148;8.234;2023-05-10T12:30:20;4.07;;;3.50;;
14903;SDS011;7543;53.148;8.234;2023-05-10T12:32:49;4.60;;;3.80;;
14903;SDS011;7543;53.148;8.234;2023-05-10T12:35:18;6.23;;;3.00;;
14903;SDS011;7543;53.148;8.234;2023-05-10T12:37:50;4.27;;;3.33;;
14903;SDS011;7543;53.148;8.234;2023-05-10T12:40:18;4.00;;;3.10;;
14903;SDS011;7543;53.148;8.234;2023-05-10T12:42:47;5.33;;;3.13;;
14903;SDS011;7543;53.148;8.234;2023-05-10T12:45:17;3.67;;;2.97;;
14903;SDS011;7543;53.148;8.234;2023-05-10T12:47:45;5.47;;;3.50;;
14903;SDS011;7543;53.148;8.234;2023-05-10T12:50:14;3.83;;;3.10;;
14903;SDS011;7543;53.148;8.234;2023-05-10T12:52:42;4.30;;;3.07;;
14903;SDS011;7543;53.148;8.234;2023-05-10T12:55:12;3.73;;;3.00;;
14903;SDS011;7543;53.148;8.234;2023-05-10T12:57:40;3.87;;;3.00;;
14903;SDS011;7543;53.148;8.234;2023-05-10T13:00:09;3.70;;;3.10;;
14903;SDS011;7543;53.148;8.234;2023-05-10T13:02:38;3.40;;;2.37;;
14903;SDS011;7543;53.148;8.234;2023-05-10T13:05:06;3.77;;;2.43;;
14903;SDS011;7543;53.148;8.234;2023-05-10T13:07:35;3.03;;;2.63;;
14903;SDS011;7543;53.148;8.234;2023-05-10T13:10:03;3.20;;;2.60;;
14903;SDS011;7543;53.148;8.234;2023-05-10T13:12:34;3.03;;;2.73;;
14903;SDS011;7543;53.148;8.234;2023-05-10T13:15:02;3.10;;;2.63;;
14903;SDS011;7543;53.148;8.234;2023-05-10T13:17:31;3.13;;;2.30;;
14903;SDS011;7543;53.148;8.234;2023-05-10T13:20:00;2.80;;;2.33;;
14903;SDS011;7543;53.148;8.234;2023-05-10T13:22:28;2.77;;;2.13;;
14903;SDS011;7543;53.148;8.234;2023-05-10T13:24:57;2.73;;;2.33;;
14903;SDS011;7543;53.148;8.234;2023-05-10T13:27:25;2.67;;;2.03;;
14903;SDS011;7543;53.148;8.234;2023-05-10T13:29:58;2.30;;;2.00;;
14903;SDS011;7543;53.148;8.234;2023-05-10T13:32:27;3.17;;;1.77;;
14903;SDS011;7543;53.148;8.234;2023-05-10T13:34:55;2.43;;;1.70;;
14903;SDS011;7543;53.148;8.234;2023-05-10T13:37:23;2.20;;;2.00;;
14903;SDS011;7543;53.148;8.234;2023-05-10T13:39:52;2.87;;;2.47;;
14903;SDS011;7543;53.148;8.234;2023-05-10T13:42:21;2.07;;;1.63;;
14903;SDS011;7543;53.148;8.234;2023-05-10T13:44:50;2.13;;;1.93;;
14903;SDS011;7543;53.148;8.234;2023-05-10T13:47:20;2.87;;;2.07;;
14903;SDS011;7543;53.148;8.234;2023-05-10T13:49:49;2.00;;;1.80;;
14903;SDS011;7543;53.148;8.234;2023-05-10T13:52:17;1.83;;;1.50;;
14903;SDS011;7543;53.148;8.234;2023-05-10T13:54:45;1.90;;;1.60;;
14903;SDS011;7543;53.148;8.234;2023-05-10T13:57:14;1.80;;;1.60;;
14903;SDS011;7543;53.148;8.234;2023-05-10T13:59:43;2.10;;;1.67;;
14903;SDS011;7543;53.148;8.234;2023-05-10T14:02:11;2.23;;;1.30;;
14903;SDS011;7543;53.148;8.234;2023-05-10T14:04:41;1.47;;;1.37;;
14903;SDS011;7543;53.148;8.234;2023-05-10T14:07:09;1.30;;;1.20;;
14903;SDS011;7543;53.148;8.234;2023-05-10T14:09:38;1.33;;;1.20;;
14903;SDS011;7543;53.148;8.234;2023-05-10T14:12:06;2.47;;;1.07;;
14903;SDS011;7543;53.148;8.234;2023-05-10T14:14:34;1.60;;;1.33;;
14903;SDS011;7543;53.148;8.234;2023-05-10T14:17:03;3.27;;;1.20;;
14903;SDS011;7543;53.148;8.234;2023-05-10T14:19:32;1.47;;;1.37;;
14903;SDS011;7543;53.148;8.234;2023-05-10T14:22:02;2.17;;;1.40;;
14903;SDS011;7543;53.148;8.234;2023-05-10T14:24:30;1.60;;;1.30;;
14903;SDS011;7543;53.148;8.234;2023-05-10T14:26:59;4.03;;;1.60;;
14903;SDS011;7543;53.148;8.234;2023-05-10T14:29:27;2.13;;;1.30;;
14903;SDS011;7543;53.148;8.234;2023-05-10T14:31:56;1.67;;;1.17;;
14903;SDS011;7543;53.148;8.234;2023-05-10T14:34:24;1.83;;;1.30;;
14903;SDS011;7543;53.148;8.234;2023-05-10T14:36:52;1.60;;;1.20;;
14903;SDS011;7543;53.148;8.234;2023-05-10T14:39:23;1.20;;;1.10;;
14903;SDS011;7543;53.148;8.234;2023-05-10T14:41:51;1.53;;;1.10;;
14903;SDS011;7543;53.148;8.234;2023-05-10T14:44:20;1.77;;;1.17;;
14903;SDS011;7543;53.148;8.234;2023-05-10T14:46:48;1.03;;;0.90;;
14903;SDS011;7543;53.148;8.234;2023-05-10T14:49:17;1.90;;;1.27;;
14903;SDS011;7543;53.148;8.234;2023-05-10T14:51:48;1.50;;;1.00;;
14903;SDS011;7543;53.148;8.234;2023-05-10T14:54:17;0.83;;;0.83;;
14903;SDS011;7543;53.148;8.234;2023-05-10T14:56:46;1.67;;;1.30;;
14903;SDS011;7543;53.148;8.234;2023-05-10T14:59:16;1.40;;;1.30;;
14903;SDS011;7543;53.148;8.234;2023-05-10T15:01:44;1.30;;;1.00;;
14903;SDS011;7543;53.148;8.234;2023-05-10T15:04:13;1.27;;;1.00;;
14903;SDS011;7543;53.148;8.234;2023-05-10T15:06:43;1.23;;;1.00;;
14903;SDS011;7543;53.148;8.234;2023-05-10T15:09:12;2.57;;;1.20;;
14903;SDS011;7543;53.148;8.234;2023-05-10T15:11:40;1.10;;;1.00;;
14903;SDS011;7543;53.148;8.234;2023-05-10T15:14:10;1.20;;;0.73;;
14903;SDS011;7543;53.148;8.234;2023-05-10T15:16:38;1.00;;;0.90;;
14903;SDS011;7543;53.148;8.234;2023-05-10T15:19:07;1.20;;;1.10;;
14903;SDS011;7543;53.148;8.234;2023-05-10T15:21:35;1.13;;;1.03;;
14903;SDS011;7543;53.148;8.234;2023-05-10T15:24:05;1.50;;;1.17;;